Time;durP1;ratioP1;P1;durP2;ratioP2;P2;SDS_P1;SDS_P2;PMS_P1;PMS_P2;Temp;Humidity;BMP_temperature;BMP_pressure;BME280_temperature;BME280_humidity;BME280_pressure;Samples;Min_cycle;Max_cycle;Signal;HPM_P1;HPM_P2
2022/03/22 05:22:38;;;;;;;33.97;15.23;;;;;;;0.54;85.99;101771.28;5129293;27;20124;-68
2022/03/22 05:25:04;;;;;;;35.88;16.90;;;;;;;0.58;86.40;101772.81;5129672;28;20186;-69
2022/03/22 05:27:30;;;;;;;39.92;17.95;;;;;;;0.63;87.23;101775.22;5129409;28;20038;-69
2022/03/22 05:29:55;;;;;;;27.70;14.45;;;;;;;0.60;86.33;101768.38;5128636;28;20027;-69
2022/03/22 05:32:21;;;;;;;31.20;15.73;;;;;;;0.64;86.16;101767.28;5129462;28;20479;-69
2022/03/22 05:34:47;;;;;;;25.35;15.82;;;;;;;0.64;86.46;101771.69;5128450;28;20403;-69
2022/03/22 05:37:13;;;;;;;26.00;14.82;;;;;;;0.70;86.50;101776.63;5128274;28;20088;-69
2022/03/22 05:39:39;;;;;;;34.00;15.13;;;;;;;0.71;85.55;101773.94;5129518;27;20122;-69
2022/03/22 05:42:05;;;;;;;25.48;14.20;;;;;;;0.70;85.52;101776.63;5129062;27;20126;-69
2022/03/22 05:44:30;;;;;;;24.63;14.10;;;;;;;0.65;86.38;101776.88;5129459;27;20035;-69
2022/03/22 05:46:57;;;;;;;25.88;13.30;;;;;;;0.69;86.07;101773.16;5129308;27;20043;-69
2022/03/22 05:49:22;;;;;;;26.77;13.75;;;;;;;0.69;86.59;101775.78;5127994;28;20080;-69
2022/03/22 05:51:48;;;;;;;25.92;14.48;;;;;;;0.72;84.77;101780.06;5128809;28;20504;-69
2022/03/22 05:54:14;;;;;;;25.70;13.77;;;;;;;0.72;84.18;101780.91;5129064;28;20035;-69
2022/03/22 05:56:40;;;;;;;30.17;14.68;;;;;;;0.73;85.43;101779.97;5128812;28;20036;-69
2022/03/22 05:59:05;;;;;;;26.15;13.98;;;;;;;0.73;85.48;101774.75;5128835;28;20035;-69
2022/03/22 06:01:31;;;;;;;21.60;13.13;;;;;;;0.71;86.32;101773.09;5127634;28;20091;-69
2022/03/22 06:03:57;;;;;;;24.38;13.07;;;;;;;0.73;86.43;101779.97;5128650;28;20043;-69
2022/03/22 06:06:22;;;;;;;26.55;14.68;;;;;;;0.88;86.01;101778.41;5128920;28;20031;-69
2022/03/22 06:08:49;;;;;;;27.90;14.65;;;;;;;1.00;85.57;101776.94;5128949;28;20110;-69
2022/03/22 06:11:17;;;;;;;22.67;14.43;;;;;;;1.09;85.35;101766.84;5127357;28;20100;-69
2022/03/22 06:13:42;;;;;;;25.17;14.35;;;;;;;1.22;85.28;101782.84;5128582;27;20296;-69
2022/03/22 06:16:08;;;;;;;26.83;12.82;;;;;;;1.27;85.08;101780.00;5128730;27;20148;-69
2022/03/22 06:18:34;;;;;;;24.52;13.15;;;;;;;1.39;85.60;101787.25;5128749;28;20031;-70
2022/03/22 06:20:59;;;;;;;24.48;13.55;;;;;;;1.58;83.90;101782.78;5128332;28;20040;-70
2022/03/22 06:23:25;;;;;;;23.08;12.90;;;;;;;1.76;84.51;101785.38;5128149;27;20035;-69
2022/03/22 06:25:51;;;;;;;20.60;11.98;;;;;;;1.85;82.95;101783.13;5128288;27;20043;-70
2022/03/22 06:28:18;;;;;;;25.50;13.63;;;;;;;2.02;83.44;101778.75;5128295;27;20127;-69
2022/03/22 06:30:44;;;;;;;27.08;13.38;;;;;;;2.31;81.48;101793.84;5128615;27;20036;-68
2022/03/22 06:33:16;;;;;;;22.60;13.32;;;;;;;2.48;80.30;101784.16;5118870;28;20618;-70
2022/03/22 06:35:43;;;;;;;24.02;13.38;;;;;;;2.44;82.95;101786.97;5114632;28;20032;-70
2022/03/22 06:38:10;;;;;;;24.40;13.55;;;;;;;2.78;80.60;101797.44;5114456;28;20437;-70
2022/03/22 06:40:38;;;;;;;24.42;12.57;;;;;;;2.89;80.16;101788.00;5114431;28;20024;-71
2022/03/22 06:43:06;;;;;;;20.75;13.15;;;;;;;3.20;79.10;101796.81;5113711;28;20027;-69
2022/03/22 06:45:32;;;;;;;;;;;;;;;3.47;78.09;101797.81;5115409;28;20070;-71
2022/03/22 06:47:58;;;;;;;24.60;12.38;;;;;;;3.50;78.23;101800.28;5115035;28;20512;-71
2022/03/22 06:50:25;;;;;;;21.88;12.10;;;;;;;3.83;77.36;101796.56;5114133;28;20069;-71
2022/03/22 06:52:50;;;;;;;23.63;11.65;;;;;;;4.14;75.13;101800.00;5112891;28;20530;-69
2022/03/22 06:55:18;;;;;;;19.13;11.40;;;;;;;4.28;71.42;101803.47;5114070;28;20028;-71
2022/03/22 06:57:44;;;;;;;21.30;12.30;;;;;;;4.43;68.75;101801.66;5114068;28;20109;-68
2022/03/22 07:00:15;;;;;;;20.42;11.07;;;;;;;4.83;67.49;101799.16;5113024;28;20043;-69
2022/03/22 07:02:40;;;;;;;20.27;11.80;;;;;;;5.05;65.83;101796.81;5113865;28;20039;-73
2022/03/22 07:05:08;;;;;;;19.92;11.85;;;;;;;5.43;65.71;101804.88;5114186;28;20039;-72
2022/03/22 07:07:34;;;;;;;16.92;10.85;;;;;;;5.38;64.92;101806.97;5114081;28;20108;-72
2022/03/22 07:09:59;;;;;;;17.83;11.15;;;;;;;5.46;64.28;101803.81;5113977;28;20059;-70
2022/03/22 07:12:25;;;;;;;27.55;11.02;;;;;;;5.47;64.77;101805.50;5113479;28;20043;-71
2022/03/22 07:14:51;;;;;;;21.33;10.55;;;;;;;5.56;66.43;101802.25;5113932;28;20027;-71
2022/03/22 07:17:17;;;;;;;19.20;11.15;;;;;;;5.84;64.67;101808.31;5112353;28;20664;-71
2022/03/22 07:19:42;;;;;;;18.33;11.95;;;;;;;5.96;62.40;101804.84;5113744;28;20035;-70
2022/03/22 07:22:08;;;;;;;22.55;11.65;;;;;;;6.10;62.18;101806.53;5113508;28;20031;-70
2022/03/22 07:24:34;;;;;;;19.98;11.48;;;;;;;6.09;60.67;101808.34;5113479;28;20118;-70
2022/03/22 07:27:00;;;;;;;22.52;11.40;;;;;;;6.24;59.90;101809.91;5113359;28;20357;-70
2022/03/22 07:29:26;;;;;;;18.48;10.82;;;;;;;6.46;60.15;101809.25;5113428;28;20104;-70
2022/03/22 07:31:52;;;;;;;18.38;10.48;;;;;;;6.62;58.85;101808.16;5113035;28;20032;-70
2022/03/22 07:34:19;;;;;;;21.27;12.07;;;;;;;6.65;58.93;101816.75;5113437;28;20031;-70
2022/03/22 07:36:46;;;;;;;16.10;10.00;;;;;;;6.65;58.45;101805.28;5113446;28;20519;-70
2022/03/22 07:39:13;;;;;;;18.20;10.07;;;;;;;6.79;58.15;101807.81;5113467;28;20502;-69
2022/03/22 07:41:43;;;;;;;18.30;10.03;;;;;;;6.51;58.72;101814.22;5113240;27;20070;-70
2022/03/22 07:44:12;;;;;;;17.80;10.45;;;;;;;6.73;60.17;101803.78;5110920;28;20312;-71
2022/03/22 07:46:43;;;;;;;15.30;9.73;;;;;;;7.28;58.97;101812.16;5113224;28;20041;-69
2022/03/22 07:54:39;;;;;;;16.23;9.05;;;;;;;7.31;57.15;101819.88;5113087;28;20123;-70
2022/03/22 07:57:07;;;;;;;17.02;9.70;;;;;;;7.45;55.06;101816.22;5112851;28;20015;-70
2022/03/22 07:59:32;;;;;;;;;;;;;;;7.79;56.29;101811.84;5112317;28;20027;-71
2022/03/22 08:01:58;;;;;;;16.13;9.75;;;;;;;8.08;53.27;101822.84;5112743;28;20269;-69
2022/03/22 08:04:24;;;;;;;18.48;9.57;;;;;;;8.04;54.69;101826.72;5113072;28;20452;-70
2022/03/22 08:06:49;;;;;;;15.45;9.85;;;;;;;8.09;53.98;101827.22;5113031;28;20100;-69
2022/03/22 08:09:15;;;;;;;19.02;10.15;;;;;;;7.74;53.90;101825.44;5112983;28;20038;-70
2022/03/22 08:11:41;;;;;;;17.52;9.98;;;;;;;8.24;55.11;101831.34;5112647;28;20077;-70
2022/03/22 08:14:08;;;;;;;18.38;10.15;;;;;;;8.00;55.01;101825.25;5112804;28;20488;-70
2022/03/22 08:16:35;;;;;;;12.70;8.75;;;;;;;8.15;54.08;101826.75;5111476;28;20110;-70
2022/03/22 08:19:00;;;;;;;15.70;9.80;;;;;;;8.13;51.67;101828.66;5112494;28;20453;-70
2022/03/22 08:21:26;;;;;;;15.25;9.20;;;;;;;8.67;52.49;101841.25;5112270;28;20063;-70
2022/03/22 08:23:52;;;;;;;16.20;10.20;;;;;;;8.85;51.84;101831.81;5110828;28;20113;-70
2022/03/22 08:26:17;;;;;;;16.25;10.15;;;;;;;8.82;51.60;101833.88;5112717;28;20031;-70
2022/03/22 08:28:43;;;;;;;13.82;9.68;;;;;;;8.81;51.04;101832.19;5112816;28;20188;-70
2022/03/22 08:31:11;;;;;;;15.65;9.68;;;;;;;8.97;52.52;101835.28;5112455;28;20115;-70
2022/03/22 08:33:37;;;;;;;13.32;9.45;;;;;;;9.14;49.69;101837.44;5112453;28;20035;-70
2022/03/22 08:36:03;;;;;;;15.15;9.73;;;;;;;9.26;51.63;101835.59;5112310;28;20043;-70
2022/03/22 08:38:29;;;;;;;16.67;10.27;;;;;;;9.74;50.46;101835.97;5112563;28;20036;-70
2022/03/22 08:40:56;;;;;;;16.52;9.95;;;;;;;10.00;48.84;101828.44;5112420;28;20160;-69
2022/03/22 08:43:25;;;;;;;15.70;9.68;;;;;;;10.40;48.70;101832.16;5112347;28;20362;-69
2022/03/22 08:45:51;;;;;;;15.80;9.13;;;;;;;10.05;49.50;101831.53;5112124;28;20114;-70
2022/03/22 08:48:17;;;;;;;15.88;9.57;;;;;;;9.99;49.06;101823.25;5112139;28;20318;-70
2022/03/22 08:50:44;;;;;;;18.02;9.65;;;;;;;10.42;47.80;101828.38;5110674;28;20111;-70
2022/03/22 08:53:11;;;;;;;20.55;11.38;;;;;;;10.56;46.97;101830.69;5111724;28;20131;-70
2022/03/22 08:55:37;;;;;;;14.55;9.00;;;;;;;10.99;47.87;101821.53;5111906;28;20043;-70
2022/03/22 08:58:05;;;;;;;20.98;10.23;;;;;;;10.80;45.76;101818.84;5111942;28;20047;-70
2022/03/22 09:00:32;;;;;;;;;;;;;;;11.17;44.90;101827.03;5112737;28;20035;-70
2022/03/22 09:02:57;;;;;;;17.65;9.70;;;;;;;11.04;45.46;101824.66;5111832;28;19912;-70
2022/03/22 09:08:07;;;;;;;15.57;8.90;;;;;;;11.36;44.94;101818.22;5111966;28;20123;-70
2022/03/22 09:10:34;;;;;;;15.23;9.20;;;;;;;11.25;45.55;101829.00;5111637;28;20089;-70
2022/03/22 09:13:01;;;;;;;13.93;8.32;;;;;;;11.69;43.82;101820.44;5112061;28;20039;-71
2022/03/22 09:15:28;;;;;;;15.68;9.02;;;;;;;11.67;44.27;101814.41;5111572;28;20038;-70
2022/03/22 09:17:55;;;;;;;16.15;9.02;;;;;;;11.95;42.92;101818.03;5111668;28;20373;-69
2022/03/22 09:20:21;;;;;;;14.02;9.65;;;;;;;11.99;43.14;101818.56;5111581;28;20059;-70
2022/03/22 09:22:51;;;;;;;12.30;9.30;;;;;;;12.20;43.98;101815.72;5111375;28;20140;-70
2022/03/22 09:25:20;;;;;;;15.18;9.70;;;;;;;11.88;43.28;101818.75;5111623;28;20606;-70
2022/03/22 09:27:46;;;;;;;14.75;9.23;;;;;;;12.15;44.15;101821.50;5111647;28;20046;-70
2022/03/22 09:30:12;;;;;;;13.25;8.40;;;;;;;12.49;43.12;101821.78;5111668;28;20035;-70
2022/03/22 09:32:40;;;;;;;14.60;9.63;;;;;;;11.91;43.93;101824.66;5111634;28;20066;-70
2022/03/22 09:35:09;;;;;;;14.10;9.70;;;;;;;12.12;42.35;101818.25;5111637;28;20110;-70
2022/03/22 09:37:35;;;;;;;13.35;9.07;;;;;;;12.67;41.74;101823.69;5111590;28;20040;-70
2022/03/22 09:40:01;;;;;;;14.05;9.63;;;;;;;12.91;40.49;101805.25;5111588;28;20035;-70
2022/03/22 09:42:27;;;;;;;13.25;9.43;;;;;;;13.18;39.91;101816.91;5111064;28;20032;-70
2022/03/22 09:44:53;;;;;;;15.48;9.40;;;;;;;13.47;40.33;101808.66;5111484;28;20118;-70
2022/03/22 09:47:19;;;;;;;14.77;9.45;;;;;;;13.90;39.31;101815.84;5111275;28;20036;-70
2022/03/22 09:49:45;;;;;;;11.20;8.20;;;;;;;14.51;38.60;101814.03;5111327;28;20035;-70
2022/03/22 09:52:11;;;;;;;14.10;9.55;;;;;;;14.50;40.94;101809.69;5111200;28;20034;-70
2022/03/22 09:54:39;;;;;;;12.75;8.88;;;;;;;14.73;38.43;101815.28;5111547;28;20476;-70
2022/03/22 09:57:05;;;;;;;12.88;8.98;;;;;;;14.95;37.42;101811.19;5111423;28;20468;-71
2022/03/22 09:59:35;;;;;;;14.30;8.85;;;;;;;14.97;38.97;101809.16;5111535;28;20061;-71
2022/03/22 10:02:02;;;;;;;19.08;9.85;;;;;;;15.22;37.67;101810.88;5102617;28;20036;-70
2022/03/22 10:04:41;;;;;;;12.23;8.63;;;;;;;15.97;37.96;101810.72;5103162;28;20099;-70
2022/03/22 10:07:15;;;;;;;15.95;9.50;;;;;;;16.18;35.04;101807.50;5111437;28;20168;-71
2022/03/22 10:09:41;;;;;;;16.05;9.00;;;;;;;16.99;34.68;101809.03;5113195;28;20430;-71
2022/03/22 10:12:10;;;;;;;15.88;9.52;;;;;;;17.31;34.73;101805.28;5114343;28;20044;-71
2022/03/22 10:14:38;;;;;;;13.77;9.70;;;;;;;17.43;33.29;101808.38;5113820;28;20031;-71
2022/03/22 10:17:09;;;;;;;18.00;9.13;;;;;;;17.24;34.70;101799.78;5115138;28;20130;-70
2022/03/22 10:19:44;;;;;;;12.55;9.02;;;;;;;18.23;31.94;101805.97;5113888;28;20456;-71
2022/03/22 10:22:10;;;;;;;13.80;9.85;;;;;;;17.57;34.84;101810.28;5114765;28;20030;-71
2022/03/22 10:24:50;;;;;;;13.68;9.48;;;;;;;17.58;32.87;101796.63;5114904;28;20481;-70
2022/03/22 10:27:27;;;;;;;15.15;8.70;;;;;;;19.15;29.81;101798.19;5114083;28;20450;-71
2022/03/22 10:29:54;;;;;;;13.10;9.60;;;;;;;19.93;28.68;101790.97;5114838;28;20031;-70
2022/03/22 10:32:32;;;;;;;16.63;9.63;;;;;;;19.33;31.73;101796.91;5114389;28;20031;-71
2022/03/22 10:35:20;;;;;;;12.45;9.18;;;;;;;20.59;28.77;101787.81;5114974;28;20345;-71
2022/03/22 10:37:48;;;;;;;13.23;9.20;;;;;;;20.03;28.86;101787.94;5114685;28;20032;-70
2022/03/22 10:40:29;;;;;;;12.13;8.48;;;;;;;19.56;28.69;101786.72;5114614;28;20036;-70
2022/03/22 10:43:02;;;;;;;15.90;9.75;;;;;;;18.37;30.71;101785.41;5114397;28;20096;-69
2022/03/22 10:45:29;;;;;;;16.80;9.73;;;;;;;18.60;31.30;101788.81;5114672;28;20039;-70
2022/03/22 10:47:56;;;;;;;11.40;9.68;;;;;;;20.03;29.13;101777.13;5114429;28;20038;-71
2022/03/22 10:50:22;;;;;;;13.50;9.35;;;;;;;20.88;28.46;101785.88;5114532;28;20122;-70
2022/03/22 10:52:53;;;;;;;12.18;8.95;;;;;;;20.82;27.98;101782.09;5114029;28;20027;-70
2022/03/22 10:55:21;;;;;;;10.77;8.85;;;;;;;21.55;26.62;101774.09;5114334;28;20044;-70
2022/03/22 10:58:05;;;;;;;14.80;9.57;;;;;;;20.20;29.22;101783.84;5114329;28;20120;-70
2022/03/22 11:00:31;;;;;;;14.43;9.02;;;;;;;20.65;29.54;101781.59;5114186;28;20092;-70
2022/03/22 11:02:57;;;;;;;13.48;9.32;;;;;;;20.24;29.81;101773.50;5113845;28;20107;-69
2022/03/22 11:05:25;;;;;;;13.50;9.68;;;;;;;21.43;27.04;101768.47;5114077;27;20032;-70
2022/03/22 11:07:51;;;;;;;;;;;;;;;22.22;25.31;101770.25;5113345;28;20054;-69
2022/03/22 11:10:19;;;;;;;17.25;9.73;;;;;;;19.58;29.17;101767.66;5114137;28;20004;-69
2022/03/22 11:12:46;;;;;;;13.23;9.43;;;;;;;19.81;28.28;101761.97;5113684;27;20034;-70
2022/03/22 11:15:13;;;;;;;14.32;8.80;;;;;;;20.28;30.51;101770.19;5113930;28;20095;-69
2022/03/22 11:17:40;;;;;;;13.10;9.15;;;;;;;22.16;25.62;101761.06;5113885;28;20441;-70
2022/03/22 11:20:09;;;;;;;12.43;9.70;;;;;;;21.53;25.92;101757.22;5113918;28;20041;-70
2022/03/22 11:22:35;;;;;;;13.32;8.88;;;;;;;21.03;27.40;101752.13;5113491;28;20449;-70
2022/03/22 11:25:12;;;;;;;13.35;10.35;;;;;;;22.40;24.78;101756.00;5113737;28;20437;-70
2022/03/22 11:27:39;;;;;;;13.52;9.65;;;;;;;22.09;24.66;101754.00;5113778;28;20039;-70
2022/03/22 11:30:07;;;;;;;12.55;9.80;;;;;;;22.77;23.46;101748.94;5130487;22;20033;-69
2022/03/22 11:35:25;;;;;;;12.55;8.50;;;;;;;23.35;24.60;101750.66;5073239;28;20036;-70
2022/03/22 11:38:00;;;;;;;11.75;8.48;;;;;;;24.44;22.30;101747.25;5055015;28;20111;-69
2022/03/22 11:43:15;;;;;;;11.60;9.00;;;;;;;22.15;25.71;101735.00;5072952;28;20040;-75
2022/03/22 11:45:51;;;;;;;9.15;8.00;;;;;;;23.21;21.95;101723.59;5071697;28;20037;-69
2022/03/22 11:48:17;;;;;;;11.23;8.50;;;;;;;21.24;22.51;101724.00;5072937;28;20060;-70
2022/03/22 11:50:46;;;;;;;11.00;8.32;;;;;;;22.86;20.29;101725.91;5072598;28;20047;-70
2022/03/22 11:53:17;;;;;;;14.52;8.90;;;;;;;21.47;20.18;101703.84;5072464;28;20038;-70
2022/03/22 11:55:43;;;;;;;11.05;7.43;;;;;;;21.91;21.20;101725.66;5072636;28;20366;-69
2022/03/22 11:58:09;;;;;;;10.65;7.95;;;;;;;21.91;21.25;101717.53;5073196;28;20036;-70
2022/03/22 12:00:55;;;;;;;9.95;8.65;;;;;;;21.54;19.71;101713.63;5072646;28;20040;-71
2022/03/22 12:03:27;;;;;;;10.88;8.15;;;;;;;21.47;22.12;101710.09;5072531;28;20082;-70
2022/03/22 12:05:53;;;;;;;11.38;8.90;;;;;;;23.80;20.64;101708.63;5071629;28;20041;-69
2022/03/22 12:08:20;;;;;;;10.90;8.50;;;;;;;23.05;21.06;101702.38;5072497;28;20138;-69
2022/03/22 12:10:47;;;;;;;11.32;8.43;;;;;;;25.61;19.99;101705.84;5072502;28;20067;-70
2022/03/22 12:13:13;;;;;;;10.87;8.90;;;;;;;25.60;20.04;101702.28;5072153;28;20036;-70
2022/03/22 12:15:39;;;;;;;12.48;9.77;;;;;;;23.17;21.32;101692.47;5072529;28;20032;-70
2022/03/22 12:18:05;;;;;;;15.75;9.55;;;;;;;23.79;20.78;101695.22;5071280;28;20086;-70
2022/03/22 12:20:30;;;;;;;10.57;8.80;;;;;;;23.34;20.01;101689.16;5071984;28;20036;-69
2022/03/22 12:23:00;;;;;;;10.50;8.13;;;;;;;23.59;22.11;101689.13;5072111;28;20040;-69
2022/03/22 12:25:30;;;;;;;12.65;8.40;;;;;;;24.81;20.87;101684.50;5072158;28;20593;-69
2022/03/22 12:27:57;;;;;;;11.00;8.80;;;;;;;25.62;19.79;101689.22;5072230;28;20040;-70
2022/03/22 12:30:26;;;;;;;13.45;9.48;;;;;;;23.77;19.96;101679.13;5071504;28;20043;-70
2022/03/22 12:32:54;;;;;;;10.20;8.40;;;;;;;24.81;20.94;101674.44;5071692;28;20215;-70
2022/03/22 12:35:20;;;;;;;12.88;9.10;;;;;;;24.61;19.23;101674.75;5070779;28;20040;-70
2022/03/22 12:37:48;;;;;;;10.57;8.40;;;;;;;25.17;19.07;101665.31;5072073;28;20028;-70
2022/03/22 12:40:16;;;;;;;;;;;;;;;25.31;18.34;101668.63;5072173;28;20510;-70
2022/03/22 12:42:43;;;;;;;9.15;7.85;;;;;;;26.02;17.56;101669.41;5071377;28;19916;-70
2022/03/22 12:45:10;;;;;;;10.90;8.20;;;;;;;24.03;20.46;101667.13;5071843;28;20108;-70
2022/03/22 12:47:38;;;;;;;12.52;8.13;;;;;;;25.17;19.74;101662.56;5070606;28;20036;-70
2022/03/22 12:50:04;;;;;;;;;;;;;;;23.72;20.05;101664.56;5072262;28;20036;-70
2022/03/22 12:52:30;;;;;;;9.38;7.78;;;;;;;24.22;19.19;101665.22;5071287;28;19923;-70
2022/03/22 12:54:56;;;;;;;9.25;7.80;;;;;;;25.83;16.32;101657.81;5071736;28;20036;-70
2022/03/22 12:57:22;;;;;;;10.98;7.90;;;;;;;24.60;18.78;101651.31;5071656;28;20036;-70
2022/03/22 12:59:48;;;;;;;11.23;8.13;;;;;;;23.49;21.00;101660.59;5070261;28;20040;-70
2022/03/22 13:02:14;;;;;;;10.32;7.80;;;;;;;23.10;20.79;101655.53;5070997;28;20083;-70
2022/03/22 13:04:47;;;;;;;13.80;8.25;;;;;;;23.42;19.92;101648.94;5071461;28;20044;-70
2022/03/22 13:07:19;;;;;;;11.68;7.90;;;;;;;24.09;17.93;101649.88;5071554;28;20032;-69
2022/03/22 13:12:33;;;;;;;14.52;8.25;;;;;;;23.49;20.81;101643.44;5071301;28;20124;-70
2022/03/22 13:15:08;;;;;;;10.50;7.93;;;;;;;25.37;18.73;101643.13;5071520;28;20060;-69
2022/03/22 13:17:43;;;;;;;9.77;8.30;;;;;;;24.43;19.58;101638.56;5071539;28;20040;-70
2022/03/22 13:20:21;;;;;;;13.85;8.20;;;;;;;25.50;17.67;101633.06;5071879;28;20045;-70
2022/03/22 13:22:58;;;;;;;12.18;8.48;;;;;;;25.14;17.87;101624.88;5071796;28;20041;-70
2022/03/22 13:25:28;;;;;;;12.13;8.25;;;;;;;25.88;18.42;101627.06;5072270;28;20024;-70
2022/03/22 13:27:57;;;;;;;11.32;8.27;;;;;;;24.10;20.21;101629.75;5073560;28;20147;-70
2022/03/22 13:30:25;;;;;;;11.70;9.25;;;;;;;24.74;18.29;101621.13;5072846;28;20159;-70
2022/03/22 13:32:50;;;;;;;;;;;;;;;23.28;20.84;101631.09;5072128;28;20033;-70
2022/03/22 13:35:19;;;;;;;13.63;8.82;;;;;;;23.83;19.13;101618.38;5071422;28;20046;-70
2022/03/22 13:37:50;;;;;;;12.30;7.93;;;;;;;24.52;18.50;101618.97;5071406;28;20028;-70
2022/03/22 13:40:17;;;;;;;12.25;8.60;;;;;;;25.34;17.77;101597.25;5071419;28;20131;-70
2022/03/22 13:43:05;;;;;;;13.10;8.18;;;;;;;25.48;16.09;101603.25;5072294;28;20462;-70
2022/03/22 13:45:32;;;;;;;11.57;8.13;;;;;;;24.93;18.91;101600.91;5075169;28;20036;-70
2022/03/22 13:47:58;;;;;;;11.87;8.87;;;;;;;23.97;17.78;101607.34;5075181;28;20036;-71
2022/03/22 13:50:28;;;;;;;13.10;8.93;;;;;;;24.51;18.35;101598.22;5075073;28;20028;-71
2022/03/22 13:53:15;;;;;;;12.32;8.52;;;;;;;26.02;17.11;101601.16;5074772;28;20040;-70
2022/03/22 13:55:46;;;;;;;12.45;7.75;;;;;;;25.37;16.07;101598.69;5074927;28;20029;-70
2022/03/22 13:58:13;;;;;;;12.07;7.32;;;;;;;25.14;15.91;101596.78;5074966;28;20048;-70
2022/03/22 14:00:40;;;;;;;;;;;;;;;24.75;15.98;101592.81;5075134;28;20032;-70
2022/03/22 14:03:07;;;;;;;10.95;7.25;;;;;;;26.28;16.46;101586.09;5075000;28;19965;-70
2022/03/22 14:05:34;;;;;;;11.07;8.00;;;;;;;25.54;15.75;101590.56;5074874;28;20036;-71
2022/03/22 14:08:00;;;;;;;10.20;8.20;;;;;;;26.21;14.97;101580.78;5073237;28;20371;-71
2022/03/22 14:10:27;;;;;;;9.55;8.13;;;;;;;26.06;15.71;101588.66;5074637;28;20531;-71
2022/03/22 14:12:53;;;;;;;11.07;8.65;;;;;;;24.38;16.96;101582.06;5074658;28;20508;-68
2022/03/22 14:15:19;;;;;;;12.85;8.48;;;;;;;22.58;19.46;101570.66;5073473;28;20111;-71
2022/03/22 14:17:45;;;;;;;12.10;8.32;;;;;;;23.44;18.47;101570.69;5073243;28;20189;-71
2022/03/22 14:20:17;;;;;;;13.77;8.25;;;;;;;22.61;18.58;101576.47;5074729;28;20114;-69
2022/03/22 14:22:46;;;;;;;12.20;9.10;;;;;;;22.04;19.55;101577.44;5074396;28;20408;-71
2022/03/22 14:25:12;;;;;;;12.73;9.00;;;;;;;20.84;22.77;101575.03;5074649;28;20039;-69
2022/03/22 14:27:39;;;;;;;11.80;8.67;;;;;;;21.09;20.50;101568.97;5074491;28;20043;-71
2022/03/22 14:30:09;;;;;;;10.73;8.85;;;;;;;20.76;21.11;101572.53;5074333;28;20513;-71
2022/03/22 14:32:35;;;;;;;11.73;7.93;;;;;;;20.54;20.27;101563.81;5074328;28;20029;-71
2022/03/22 14:37:47;;;;;;;11.68;8.13;;;;;;;20.42;21.35;101570.00;5074242;28;20374;-71
2022/03/22 14:40:13;;;;;;;12.77;8.98;;;;;;;20.04;21.69;101559.72;5072777;28;20032;-69
2022/03/22 14:42:39;;;;;;;17.55;9.55;;;;;;;20.27;21.42;101556.63;5073694;28;20131;-71
2022/03/22 14:45:08;;;;;;;12.75;10.05;;;;;;;20.12;22.28;101559.53;5074216;28;20123;-69
2022/03/22 14:47:34;;;;;;;14.00;8.63;;;;;;;20.14;22.39;101562.03;5074039;28;20119;-69
2022/03/22 14:50:05;;;;;;;14.45;9.40;;;;;;;19.59;22.25;101551.22;5073287;28;20044;-69
2022/03/22 14:55:15;;;;;;;13.30;8.98;;;;;;;19.49;24.51;101553.44;5078035;28;20066;-72
2022/03/22 15:00:25;;;;;;;14.35;9.63;;;;;;;19.46;24.26;101545.72;5076994;28;20489;-71
2022/03/22 15:02:50;;;;;;;14.95;10.07;;;;;;;19.21;23.69;101551.63;5074348;28;20048;-73
2022/03/22 15:05:31;;;;;;;15.43;10.00;;;;;;;18.83;24.66;101543.03;5073863;28;20048;-72
2022/03/22 15:07:57;;;;;;;14.00;9.52;;;;;;;19.01;24.04;101547.13;5074986;28;20068;-72
2022/03/22 15:10:23;;;;;;;13.68;9.60;;;;;;;19.07;24.11;101532.84;5072896;28;20067;-72
2022/03/22 15:12:50;;;;;;;15.45;9.50;;;;;;;18.92;23.45;101538.34;5074861;28;20044;-71
2022/03/22 15:15:17;;;;;;;11.43;9.00;;;;;;;19.14;24.47;101533.72;5041714;28;20041;-71
2022/03/22 15:17:43;;;;;;;11.13;8.50;;;;;;;18.95;23.71;101519.03;5072715;28;20409;-71
2022/03/22 15:20:10;;;;;;;12.60;8.27;;;;;;;19.20;23.98;101531.06;5073273;28;20444;-72
2022/03/22 15:22:36;;;;;;;10.80;8.02;;;;;;;19.00;22.53;101526.56;5073177;28;20100;-72
2022/03/22 15:25:02;;;;;;;12.47;8.07;;;;;;;18.90;22.53;101530.44;5072152;28;20037;-72
2022/03/22 15:27:28;;;;;;;10.77;8.00;;;;;;;18.90;23.20;101535.00;5071890;28;20044;-74
2022/03/22 15:29:54;;;;;;;12.80;8.73;;;;;;;19.00;22.58;101519.28;5072806;28;20173;-72
2022/03/22 15:32:20;;;;;;;14.95;8.60;;;;;;;18.95;23.36;101521.75;5071606;28;20136;-72
2022/03/22 15:34:46;;;;;;;12.77;7.35;;;;;;;18.86;22.42;101526.47;5073033;28;20434;-71
2022/03/22 15:37:12;;;;;;;13.95;8.48;;;;;;;18.53;23.34;101512.69;5073046;28;20024;-69
2022/03/22 15:39:38;;;;;;;13.43;7.22;;;;;;;18.52;24.21;101519.13;5072991;28;20040;-69
2022/03/22 15:42:07;;;;;;;12.07;7.35;;;;;;;17.85;24.72;101511.41;5072695;28;20036;-69
2022/03/22 15:44:33;;;;;;;11.68;7.43;;;;;;;17.99;23.54;101510.50;5073047;28;20040;-69
2022/03/22 15:46:59;;;;;;;11.15;7.47;;;;;;;17.85;25.71;101516.78;5072936;28;20446;-69
2022/03/22 15:49:25;;;;;;;11.40;7.80;;;;;;;17.58;23.87;101518.31;5071879;28;20085;-71
2022/03/22 15:51:51;;;;;;;14.18;8.35;;;;;;;17.83;23.97;101514.28;5072863;28;20056;-69
2022/03/22 15:54:18;;;;;;;12.32;7.55;;;;;;;17.84;23.63;101505.16;5072952;28;20071;-69
2022/03/22 15:56:44;;;;;;;10.52;7.65;;;;;;;17.90;23.03;101509.81;5071689;28;20033;-69
2022/03/22 15:59:11;;;;;;;11.50;7.32;;;;;;;17.72;23.13;101500.47;5072887;28;20040;-69
2022/03/22 16:01:36;;;;;;;10.13;6.63;;;;;;;17.78;24.12;101508.63;5072893;28;20028;-69
2022/03/22 16:04:02;;;;;;;10.90;7.47;;;;;;;17.41;24.41;101509.63;5072359;28;20056;-69
2022/03/22 16:06:28;;;;;;;12.55;7.75;;;;;;;17.45;23.88;101505.50;5071648;28;20493;-69
2022/03/22 16:08:54;;;;;;;12.23;7.50;;;;;;;17.57;23.66;101504.00;5072568;28;20070;-69
2022/03/22 16:11:20;;;;;;;10.88;7.38;;;;;;;17.40;24.24;101494.44;5072097;28;20485;-69
2022/03/22 16:13:47;;;;;;;16.15;7.85;;;;;;;17.42;23.78;101495.13;5072076;28;20037;-69
2022/03/22 16:16:15;;;;;;;12.27;8.13;;;;;;;17.39;24.10;101498.16;5070889;28;20063;-69
2022/03/22 16:18:41;;;;;;;14.75;8.70;;;;;;;17.36;24.48;101494.00;5072087;28;20064;-69
2022/03/22 16:21:08;;;;;;;14.70;8.00;;;;;;;17.38;24.23;101496.50;5070622;28;20178;-69
2022/03/22 16:23:34;;;;;;;13.38;8.93;;;;;;;17.37;24.57;101497.53;5072009;28;20038;-69
2022/03/22 16:26:00;;;;;;;17.23;9.27;;;;;;;17.48;24.70;101499.75;5071136;28;20032;-69
2022/03/22 16:28:27;;;;;;;14.98;9.60;;;;;;;17.16;25.00;101508.22;5072143;28;20032;-69
2022/03/22 16:30:54;;;;;;;13.90;8.75;;;;;;;17.25;25.05;101509.81;5071704;28;20051;-69
2022/03/22 16:41:34;;;;;;;15.82;9.98;;;;;;;17.21;25.49;101505.78;5071623;28;20592;-69
2022/03/22 16:44:01;;;;;;;14.10;9.88;;;;;;;17.14;26.15;101505.69;5071723;28;20028;-69
2022/03/22 16:46:29;;;;;;;17.05;9.90;;;;;;;17.03;25.68;101509.72;5071605;28;20534;-70
2022/03/22 16:48:56;;;;;;;12.90;8.73;;;;;;;16.71;26.84;101513.56;5071804;28;20033;-70
2022/03/22 16:51:23;;;;;;;13.95;10.18;;;;;;;16.86;26.01;101512.75;5071785;28;20028;-70
2022/03/22 16:53:49;;;;;;;11.82;9.05;;;;;;;16.57;28.17;101514.34;5071716;28;20060;-70
2022/03/22 16:56:16;;;;;;;15.82;9.85;;;;;;;16.70;27.14;101514.59;5070692;28;20047;-70
2022/03/22 16:58:42;;;;;;;14.68;9.50;;;;;;;16.57;27.33;101519.72;5071958;28;20079;-70
2022/03/22 17:01:09;;;;;;;18.20;10.27;;;;;;;16.68;26.77;101521.97;5071463;28;20029;-70
2022/03/22 17:03:41;;;;;;;13.40;9.95;;;;;;;16.59;27.25;101524.91;5071227;28;20068;-70
2022/03/22 17:06:09;;;;;;;16.23;10.20;;;;;;;16.48;27.55;101515.41;5071586;28;20048;-70
2022/03/22 17:08:39;;;;;;;14.15;10.07;;;;;;;16.45;27.61;101521.19;5071621;28;20111;-70
2022/03/22 17:11:07;;;;;;;14.27;9.15;;;;;;;16.34;28.04;101518.91;5071631;28;20066;-70
2022/03/22 17:13:33;;;;;;;16.80;10.18;;;;;;;16.26;28.13;101525.19;5071040;28;20058;-71
2022/03/22 17:15:59;;;;;;;15.93;10.45;;;;;;;16.12;28.33;101523.28;5070202;28;20104;-71